Aviation Digital Data Service (ADDS)

Output produced by METARs form (1731 UTC 22 February 2017)
found at http://aviationweather.gov/adds/metars/
 
KFAY 221218Z 2212/2312 VRB04KT 6SM BR FEW015 SCT080 BKN250 
     TEMPO 2212/2215 3SM BR SCT015 BKN250 
     FM221500 14006KT P6SM FEW015 SCT040 BKN250 
     FM230600 VRB04KT P6SM FEW005 SCT020 OVC150